sensor_id;sensor_type;location;lat;lon;timestamp;P1;durP1;ratioP1;P2;durP2;ratioP2
28304;SDS011;15569;42.652;23.040;2022-09-09T00:09:55;14.32;;;6.97;;
28304;SDS011;15569;42.652;23.040;2022-09-09T00:15:14;12.65;;;7.72;;
28304;SDS011;15569;42.652;23.040;2022-09-09T00:17:51;10.20;;;7.82;;
28304;SDS011;15569;42.652;23.040;2022-09-09T00:20:43;17.27;;;8.93;;
28304;SDS011;15569;42.652;23.040;2022-09-09T00:23:25;16.58;;;8.30;;
28304;SDS011;15569;42.652;23.040;2022-09-09T00:25:57;15.13;;;7.93;;
28304;SDS011;15569;42.652;23.040;2022-09-09T00:28:29;12.70;;;7.63;;
28304;SDS011;15569;42.652;23.040;2022-09-09T00:31:13;16.52;;;6.97;;
28304;SDS011;15569;42.652;23.040;2022-09-09T00:33:45;14.57;;;7.68;;
28304;SDS011;15569;42.652;23.040;2022-09-09T00:36:15;12.45;;;7.13;;
28304;SDS011;15569;42.652;23.040;2022-09-09T00:38:47;13.65;;;7.22;;
28304;SDS011;15569;42.652;23.040;2022-09-09T00:44:27;14.90;;;7.30;;
28304;SDS011;15569;42.652;23.040;2022-09-09T00:46:59;18.02;;;7.80;;
28304;SDS011;15569;42.652;23.040;2022-09-09T00:52:28;16.13;;;8.02;;
28304;SDS011;15569;42.652;23.040;2022-09-09T00:58:10;12.95;;;6.93;;
28304;SDS011;15569;42.652;23.040;2022-09-09T01:00:39;13.60;;;6.85;;
28304;SDS011;15569;42.652;23.040;2022-09-09T01:11:03;14.73;;;7.70;;
28304;SDS011;15569;42.652;23.040;2022-09-09T01:13:33;17.42;;;8.77;;
28304;SDS011;15569;42.652;23.040;2022-09-09T01:16:01;15.55;;;8.93;;
28304;SDS011;15569;42.652;23.040;2022-09-09T01:18:30;20.33;;;8.95;;
28304;SDS011;15569;42.652;23.040;2022-09-09T01:23:41;16.60;;;7.90;;
28304;SDS011;15569;42.652;23.040;2022-09-09T01:28:36;15.00;;;7.82;;
28304;SDS011;15569;42.652;23.040;2022-09-09T01:31:04;11.20;;;7.68;;
28304;SDS011;15569;42.652;23.040;2022-09-09T01:33:31;15.07;;;8.00;;
28304;SDS011;15569;42.652;23.040;2022-09-09T01:38:37;12.85;;;7.45;;
28304;SDS011;15569;42.652;23.040;2022-09-09T01:41:03;15.23;;;7.78;;
28304;SDS011;15569;42.652;23.040;2022-09-09T01:43:29;18.42;;;7.78;;
28304;SDS011;15569;42.652;23.040;2022-09-09T01:45:55;9.82;;;6.80;;
28304;SDS011;15569;42.652;23.040;2022-09-09T01:48:24;11.73;;;7.10;;
28304;SDS011;15569;42.652;23.040;2022-09-09T01:50:50;8.68;;;6.82;;
28304;SDS011;15569;42.652;23.040;2022-09-09T01:53:17;10.70;;;7.32;;
28304;SDS011;15569;42.652;23.040;2022-09-09T01:55:45;18.67;;;8.25;;
28304;SDS011;15569;42.652;23.040;2022-09-09T02:01:00;17.58;;;8.25;;
28304;SDS011;15569;42.652;23.040;2022-09-09T02:03:32;10.32;;;7.20;;
28304;SDS011;15569;42.652;23.040;2022-09-09T02:11:13;11.07;;;7.10;;
28304;SDS011;15569;42.652;23.040;2022-09-09T02:13:39;10.25;;;7.85;;
28304;SDS011;15569;42.652;23.040;2022-09-09T02:19:27;9.57;;;7.35;;
28304;SDS011;15569;42.652;23.040;2022-09-09T02:21:42;10.80;;;6.63;;
28304;SDS011;15569;42.652;23.040;2022-09-09T02:24:10;12.75;;;7.50;;
28304;SDS011;15569;42.652;23.040;2022-09-09T02:26:41;16.08;;;7.93;;
28304;SDS011;15569;42.652;23.040;2022-09-09T02:29:14;14.85;;;8.30;;
28304;SDS011;15569;42.652;23.040;2022-09-09T02:31:45;15.38;;;8.90;;
28304;SDS011;15569;42.652;23.040;2022-09-09T02:34:12;14.98;;;7.88;;
28304;SDS011;15569;42.652;23.040;2022-09-09T02:36:40;13.93;;;8.32;;
28304;SDS011;15569;42.652;23.040;2022-09-09T02:39:08;15.02;;;8.35;;
28304;SDS011;15569;42.652;23.040;2022-09-09T02:41:35;13.80;;;8.95;;
28304;SDS011;15569;42.652;23.040;2022-09-09T02:44:05;12.32;;;7.75;;
28304;SDS011;15569;42.652;23.040;2022-09-09T02:52:02;16.10;;;7.78;;
28304;SDS011;15569;42.652;23.040;2022-09-09T02:54:34;9.73;;;8.27;;
28304;SDS011;15569;42.652;23.040;2022-09-09T02:57:12;15.05;;;9.40;;
28304;SDS011;15569;42.652;23.040;2022-09-09T02:59:46;16.08;;;8.13;;
28304;SDS011;15569;42.652;23.040;2022-09-09T03:02:12;12.45;;;7.95;;
28304;SDS011;15569;42.652;23.040;2022-09-09T03:04:38;16.70;;;8.75;;
28304;SDS011;15569;42.652;23.040;2022-09-09T03:07:04;14.38;;;8.35;;
28304;SDS011;15569;42.652;23.040;2022-09-09T03:09:30;14.65;;;8.50;;
28304;SDS011;15569;42.652;23.040;2022-09-09T03:11:57;11.40;;;8.35;;
28304;SDS011;15569;42.652;23.040;2022-09-09T03:14:23;13.77;;;7.85;;
28304;SDS011;15569;42.652;23.040;2022-09-09T03:16:53;14.40;;;8.05;;
28304;SDS011;15569;42.652;23.040;2022-09-09T03:19:20;15.98;;;7.75;;
28304;SDS011;15569;42.652;23.040;2022-09-09T03:21:46;17.13;;;8.13;;
28304;SDS011;15569;42.652;23.040;2022-09-09T03:24:12;15.27;;;8.73;;
28304;SDS011;15569;42.652;23.040;2022-09-09T03:26:39;10.55;;;8.75;;
28304;SDS011;15569;42.652;23.040;2022-09-09T03:29:05;15.73;;;8.45;;
28304;SDS011;15569;42.652;23.040;2022-09-09T03:31:35;14.35;;;8.50;;
28304;SDS011;15569;42.652;23.040;2022-09-09T03:34:01;12.93;;;8.53;;
28304;SDS011;15569;42.652;23.040;2022-09-09T03:36:27;15.30;;;8.80;;
28304;SDS011;15569;42.652;23.040;2022-09-09T03:38:53;10.60;;;7.70;;
28304;SDS011;15569;42.652;23.040;2022-09-09T03:41:20;11.40;;;8.00;;
28304;SDS011;15569;42.652;23.040;2022-09-09T03:43:47;8.10;;;7.18;;
28304;SDS011;15569;42.652;23.040;2022-09-09T03:46:12;15.10;;;7.97;;
28304;SDS011;15569;42.652;23.040;2022-09-09T03:48:37;13.07;;;7.82;;
28304;SDS011;15569;42.652;23.040;2022-09-09T03:51:03;18.42;;;9.60;;
28304;SDS011;15569;42.652;23.040;2022-09-09T03:53:28;15.38;;;9.10;;
28304;SDS011;15569;42.652;23.040;2022-09-09T03:55:55;14.38;;;7.70;;
28304;SDS011;15569;42.652;23.040;2022-09-09T04:03:24;14.10;;;9.32;;
28304;SDS011;15569;42.652;23.040;2022-09-09T04:05:53;17.50;;;9.25;;
28304;SDS011;15569;42.652;23.040;2022-09-09T04:08:20;12.15;;;9.00;;
28304;SDS011;15569;42.652;23.040;2022-09-09T04:10:46;16.42;;;10.27;;
28304;SDS011;15569;42.652;23.040;2022-09-09T04:13:14;14.70;;;9.15;;
28304;SDS011;15569;42.652;23.040;2022-09-09T04:15:41;16.40;;;8.73;;
28304;SDS011;15569;42.652;23.040;2022-09-09T04:18:07;16.77;;;9.07;;
28304;SDS011;15569;42.652;23.040;2022-09-09T04:20:32;13.27;;;8.57;;
28304;SDS011;15569;42.652;23.040;2022-09-09T04:22:58;10.82;;;7.43;;
28304;SDS011;15569;42.652;23.040;2022-09-09T04:25:24;12.15;;;8.45;;
28304;SDS011;15569;42.652;23.040;2022-09-09T04:27:53;15.57;;;7.47;;
28304;SDS011;15569;42.652;23.040;2022-09-09T04:30:19;12.90;;;8.00;;
28304;SDS011;15569;42.652;23.040;2022-09-09T04:32:46;12.95;;;8.40;;
28304;SDS011;15569;42.652;23.040;2022-09-09T04:35:11;15.18;;;8.25;;
28304;SDS011;15569;42.652;23.040;2022-09-09T04:37:37;15.43;;;8.50;;
28304;SDS011;15569;42.652;23.040;2022-09-09T04:40:02;15.77;;;7.32;;
28304;SDS011;15569;42.652;23.040;2022-09-09T04:42:28;16.42;;;8.05;;
28304;SDS011;15569;42.652;23.040;2022-09-09T04:44:53;27.63;;;9.18;;
28304;SDS011;15569;42.652;23.040;2022-09-09T04:47:19;12.68;;;8.68;;
28304;SDS011;15569;42.652;23.040;2022-09-09T04:49:45;13.82;;;8.57;;
28304;SDS011;15569;42.652;23.040;2022-09-09T04:52:10;11.75;;;8.20;;
28304;SDS011;15569;42.652;23.040;2022-09-09T04:54:35;12.73;;;8.20;;
28304;SDS011;15569;42.652;23.040;2022-09-09T04:57:01;16.13;;;8.63;;
28304;SDS011;15569;42.652;23.040;2022-09-09T04:59:27;11.25;;;8.48;;
28304;SDS011;15569;42.652;23.040;2022-09-09T05:01:52;11.32;;;8.38;;
28304;SDS011;15569;42.652;23.040;2022-09-09T05:04:20;14.20;;;8.18;;
28304;SDS011;15569;42.652;23.040;2022-09-09T05:06:45;13.07;;;8.27;;
28304;SDS011;15569;42.652;23.040;2022-09-09T05:09:11;13.85;;;9.82;;
28304;SDS011;15569;42.652;23.040;2022-09-09T05:11:36;16.70;;;9.80;;
28304;SDS011;15569;42.652;23.040;2022-09-09T05:14:02;15.77;;;9.63;;
28304;SDS011;15569;42.652;23.040;2022-09-09T05:16:28;23.27;;;10.57;;
28304;SDS011;15569;42.652;23.040;2022-09-09T05:18:54;14.30;;;10.40;;
28304;SDS011;15569;42.652;23.040;2022-09-09T05:21:20;17.95;;;10.05;;
28304;SDS011;15569;42.652;23.040;2022-09-09T05:23:48;20.45;;;9.90;;
28304;SDS011;15569;42.652;23.040;2022-09-09T05:26:15;18.00;;;10.43;;
28304;SDS011;15569;42.652;23.040;2022-09-09T05:28:42;20.45;;;10.32;;
28304;SDS011;15569;42.652;23.040;2022-09-09T05:31:08;16.17;;;10.38;;
28304;SDS011;15569;42.652;23.040;2022-09-09T05:33:37;13.48;;;8.68;;
28304;SDS011;15569;42.652;23.040;2022-09-09T05:36:06;16.45;;;10.55;;
28304;SDS011;15569;42.652;23.040;2022-09-09T05:38:34;23.27;;;10.10;;
28304;SDS011;15569;42.652;23.040;2022-09-09T05:41:00;12.63;;;9.48;;
28304;SDS011;15569;42.652;23.040;2022-09-09T05:43:27;16.60;;;9.40;;
28304;SDS011;15569;42.652;23.040;2022-09-09T05:46:04;21.77;;;10.13;;
28304;SDS011;15569;42.652;23.040;2022-09-09T05:48:37;12.30;;;9.70;;
28304;SDS011;15569;42.652;23.040;2022-09-09T05:51:05;18.35;;;9.80;;
28304;SDS011;15569;42.652;23.040;2022-09-09T05:56:06;13.07;;;8.90;;
28304;SDS011;15569;42.652;23.040;2022-09-09T05:58:37;15.07;;;9.20;;
28304;SDS011;15569;42.652;23.040;2022-09-09T06:01:12;15.10;;;9.10;;
28304;SDS011;15569;42.652;23.040;2022-09-09T06:03:46;15.82;;;9.80;;
28304;SDS011;15569;42.652;23.040;2022-09-09T06:06:22;14.38;;;10.73;;
28304;SDS011;15569;42.652;23.040;2022-09-09T06:08:53;18.67;;;10.18;;
28304;SDS011;15569;42.652;23.040;2022-09-09T06:11:23;19.13;;;8.60;;
28304;SDS011;15569;42.652;23.040;2022-09-09T06:13:50;16.13;;;9.20;;
28304;SDS011;15569;42.652;23.040;2022-09-09T06:16:19;17.15;;;10.13;;
28304;SDS011;15569;42.652;23.040;2022-09-09T06:18:45;17.20;;;9.02;;
28304;SDS011;15569;42.652;23.040;2022-09-09T06:21:16;14.23;;;9.02;;
28304;SDS011;15569;42.652;23.040;2022-09-09T06:23:43;15.68;;;9.88;;
28304;SDS011;15569;42.652;23.040;2022-09-09T06:28:47;17.20;;;9.82;;
28304;SDS011;15569;42.652;23.040;2022-09-09T06:31:16;20.23;;;9.77;;
28304;SDS011;15569;42.652;23.040;2022-09-09T06:33:43;24.97;;;12.77;;
28304;SDS011;15569;42.652;23.040;2022-09-09T06:36:11;14.40;;;9.77;;
28304;SDS011;15569;42.652;23.040;2022-09-09T06:38:38;14.75;;;9.75;;
28304;SDS011;15569;42.652;23.040;2022-09-09T06:41:04;21.98;;;9.75;;
28304;SDS011;15569;42.652;23.040;2022-09-09T06:43:31;17.52;;;9.73;;
28304;SDS011;15569;42.652;23.040;2022-09-09T06:46:00;16.23;;;10.23;;
28304;SDS011;15569;42.652;23.040;2022-09-09T06:48:28;16.50;;;9.63;;
28304;SDS011;15569;42.652;23.040;2022-09-09T06:51:04;23.45;;;13.80;;
28304;SDS011;15569;42.652;23.040;2022-09-09T06:53:32;20.52;;;10.32;;
28304;SDS011;15569;42.652;23.040;2022-09-09T06:55:59;41.92;;;21.33;;
28304;SDS011;15569;42.652;23.040;2022-09-09T06:58:27;28.20;;;12.50;;
28304;SDS011;15569;42.652;23.040;2022-09-09T07:01:00;28.83;;;13.95;;
28304;SDS011;15569;42.652;23.040;2022-09-09T07:03:27;16.52;;;10.18;;
28304;SDS011;15569;42.652;23.040;2022-09-09T07:05:56;19.48;;;11.88;;
28304;SDS011;15569;42.652;23.040;2022-09-09T07:08:22;12.55;;;9.23;;
28304;SDS011;15569;42.652;23.040;2022-09-09T07:10:48;17.88;;;9.23;;
28304;SDS011;15569;42.652;23.040;2022-09-09T07:13:14;14.25;;;9.27;;
28304;SDS011;15569;42.652;23.040;2022-09-09T07:15:40;13.45;;;8.45;;
28304;SDS011;15569;42.652;23.040;2022-09-09T07:18:06;14.02;;;9.00;;
28304;SDS011;15569;42.652;23.040;2022-09-09T07:20:32;27.00;;;15.70;;
28304;SDS011;15569;42.652;23.040;2022-09-09T07:22:57;10.43;;;7.95;;
28304;SDS011;15569;42.652;23.040;2022-09-09T07:25:24;13.32;;;8.57;;
28304;SDS011;15569;42.652;23.040;2022-09-09T07:27:52;14.90;;;8.30;;
28304;SDS011;15569;42.652;23.040;2022-09-09T07:30:18;15.55;;;10.25;;
28304;SDS011;15569;42.652;23.040;2022-09-09T07:32:44;17.88;;;7.35;;
28304;SDS011;15569;42.652;23.040;2022-09-09T07:35:09;13.55;;;7.72;;
28304;SDS011;15569;42.652;23.040;2022-09-09T07:37:36;15.30;;;9.20;;
28304;SDS011;15569;42.652;23.040;2022-09-09T07:40:02;12.85;;;7.70;;
28304;SDS011;15569;42.652;23.040;2022-09-09T07:42:28;15.00;;;7.40;;
28304;SDS011;15569;42.652;23.040;2022-09-09T07:44:54;11.40;;;7.32;;
28304;SDS011;15569;42.652;23.040;2022-09-09T07:47:20;17.17;;;7.07;;
28304;SDS011;15569;42.652;23.040;2022-09-09T07:49:45;15.32;;;7.32;;
28304;SDS011;15569;42.652;23.040;2022-09-09T07:52:11;15.52;;;7.10;;
28304;SDS011;15569;42.652;23.040;2022-09-09T07:54:37;14.73;;;7.97;;
28304;SDS011;15569;42.652;23.040;2022-09-09T07:57:02;16.58;;;7.68;;
28304;SDS011;15569;42.652;23.040;2022-09-09T07:59:29;13.50;;;8.32;;
28304;SDS011;15569;42.652;23.040;2022-09-09T08:01:55;11.77;;;6.78;;
28304;SDS011;15569;42.652;23.040;2022-09-09T08:04:21;23.08;;;7.97;;
28304;SDS011;15569;42.652;23.040;2022-09-09T08:06:49;14.35;;;8.63;;
28304;SDS011;15569;42.652;23.040;2022-09-09T08:09:17;16.92;;;8.32;;
28304;SDS011;15569;42.652;23.040;2022-09-09T08:11:43;12.45;;;7.53;;
28304;SDS011;15569;42.652;23.040;2022-09-09T08:14:09;13.98;;;7.15;;
28304;SDS011;15569;42.652;23.040;2022-09-09T08:16:37;14.73;;;7.38;;
28304;SDS011;15569;42.652;23.040;2022-09-09T08:19:05;10.73;;;6.53;;
28304;SDS011;15569;42.652;23.040;2022-09-09T08:21:32;17.83;;;8.90;;
28304;SDS011;15569;42.652;23.040;2022-09-09T08:24:01;16.83;;;7.83;;
28304;SDS011;15569;42.652;23.040;2022-09-09T08:26:35;13.05;;;7.25;;
28304;SDS011;15569;42.652;23.040;2022-09-09T08:29:05;17.65;;;6.88;;
28304;SDS011;15569;42.652;23.040;2022-09-09T08:31:33;15.13;;;7.72;;
28304;SDS011;15569;42.652;23.040;2022-09-09T08:34:03;15.48;;;7.50;;
28304;SDS011;15569;42.652;23.040;2022-09-09T08:36:30;12.77;;;7.55;;
28304;SDS011;15569;42.652;23.040;2022-09-09T08:39:02;12.38;;;7.10;;
28304;SDS011;15569;42.652;23.040;2022-09-09T08:52:31;8.43;;;6.55;;
28304;SDS011;15569;42.652;23.040;2022-09-09T08:55:05;11.23;;;6.85;;
28304;SDS011;15569;42.652;23.040;2022-09-09T08:57:46;16.98;;;9.55;;
28304;SDS011;15569;42.652;23.040;2022-09-09T09:00:14;18.83;;;9.07;;
28304;SDS011;15569;42.652;23.040;2022-09-09T09:02:42;11.50;;;6.82;;
28304;SDS011;15569;42.652;23.040;2022-09-09T09:05:41;16.50;;;7.95;;
28304;SDS011;15569;42.652;23.040;2022-09-09T09:13:13;11.60;;;6.63;;
28304;SDS011;15569;42.652;23.040;2022-09-09T09:15:46;10.63;;;7.22;;
28304;SDS011;15569;42.652;23.040;2022-09-09T09:18:17;14.55;;;6.97;;
28304;SDS011;15569;42.652;23.040;2022-09-09T09:20:48;19.00;;;9.38;;
28304;SDS011;15569;42.652;23.040;2022-09-09T09:23:28;9.52;;;6.93;;
28304;SDS011;15569;42.652;23.040;2022-09-09T09:26:01;14.38;;;7.30;;
28304;SDS011;15569;42.652;23.040;2022-09-09T09:28:27;19.27;;;11.18;;
28304;SDS011;15569;42.652;23.040;2022-09-09T09:31:00;13.43;;;7.53;;
28304;SDS011;15569;42.652;23.040;2022-09-09T09:36:11;26.33;;;11.50;;
28304;SDS011;15569;42.652;23.040;2022-09-09T09:38:40;20.38;;;9.55;;
28304;SDS011;15569;42.652;23.040;2022-09-09T09:41:17;15.07;;;8.52;;
28304;SDS011;15569;42.652;23.040;2022-09-09T09:43:55;12.50;;;7.57;;
28304;SDS011;15569;42.652;23.040;2022-09-09T09:46:21;10.77;;;7.18;;
28304;SDS011;15569;42.652;23.040;2022-09-09T09:49:04;15.88;;;7.03;;
28304;SDS011;15569;42.652;23.040;2022-09-09T09:51:31;18.35;;;9.55;;
28304;SDS011;15569;42.652;23.040;2022-09-09T09:57:07;18.90;;;11.80;;
28304;SDS011;15569;42.652;23.040;2022-09-09T09:59:37;21.92;;;13.90;;
28304;SDS011;15569;42.652;23.040;2022-09-09T10:02:12;15.57;;;9.23;;
28304;SDS011;15569;42.652;23.040;2022-09-09T10:04:59;12.25;;;7.65;;
28304;SDS011;15569;42.652;23.040;2022-09-09T10:07:26;12.70;;;8.35;;
28304;SDS011;15569;42.652;23.040;2022-09-09T10:09:55;12.15;;;8.63;;
28304;SDS011;15569;42.652;23.040;2022-09-09T10:17:54;18.70;;;8.23;;
28304;SDS011;15569;42.652;23.040;2022-09-09T10:26:55;11.57;;;7.50;;
28304;SDS011;15569;42.652;23.040;2022-09-09T10:32:29;12.45;;;7.70;;
28304;SDS011;15569;42.652;23.040;2022-09-09T10:51:22;9.32;;;7.00;;
28304;SDS011;15569;42.652;23.040;2022-09-09T10:54:32;8.77;;;7.00;;
28304;SDS011;15569;42.652;23.040;2022-09-09T10:57:02;9.80;;;7.28;;
28304;SDS011;15569;42.652;23.040;2022-09-09T10:59:37;17.42;;;6.97;;
28304;SDS011;15569;42.652;23.040;2022-09-09T11:02:12;11.20;;;6.47;;
28304;SDS011;15569;42.652;23.040;2022-09-09T11:04:50;8.82;;;6.68;;
28304;SDS011;15569;42.652;23.040;2022-09-09T11:10:52;10.80;;;7.45;;
28304;SDS011;15569;42.652;23.040;2022-09-09T11:16:38;26.45;;;14.02;;
28304;SDS011;15569;42.652;23.040;2022-09-09T11:22:02;17.08;;;11.45;;
28304;SDS011;15569;42.652;23.040;2022-09-09T11:41:10;19.25;;;11.43;;
28304;SDS011;15569;42.652;23.040;2022-09-09T11:43:50;14.07;;;9.52;;
28304;SDS011;15569;42.652;23.040;2022-09-09T11:46:17;11.80;;;7.90;;
28304;SDS011;15569;42.652;23.040;2022-09-09T11:48:56;20.20;;;8.10;;
28304;SDS011;15569;42.652;23.040;2022-09-09T11:53:53;10.32;;;7.63;;
28304;SDS011;15569;42.652;23.040;2022-09-09T11:58:57;12.52;;;7.78;;
28304;SDS011;15569;42.652;23.040;2022-09-09T12:01:37;7.95;;;6.90;;
28304;SDS011;15569;42.652;23.040;2022-09-09T12:06:59;10.27;;;6.60;;
28304;SDS011;15569;42.652;23.040;2022-09-09T12:12:28;8.75;;;7.10;;
28304;SDS011;15569;42.652;23.040;2022-09-09T12:17:43;11.95;;;6.97;;
28304;SDS011;15569;42.652;23.040;2022-09-09T12:20:20;10.15;;;7.22;;
28304;SDS011;15569;42.652;23.040;2022-09-09T12:28:51;16.35;;;8.73;;
28304;SDS011;15569;42.652;23.040;2022-09-09T12:31:22;15.00;;;10.98;;
28304;SDS011;15569;42.652;23.040;2022-09-09T12:33:53;12.70;;;7.25;;
28304;SDS011;15569;42.652;23.040;2022-09-09T12:36:19;22.65;;;11.40;;
28304;SDS011;15569;42.652;23.040;2022-09-09T12:38:50;16.80;;;10.43;;
28304;SDS011;15569;42.652;23.040;2022-09-09T12:41:27;18.80;;;8.52;;
28304;SDS011;15569;42.652;23.040;2022-09-09T12:44:08;23.98;;;9.35;;
28304;SDS011;15569;42.652;23.040;2022-09-09T12:46:36;12.70;;;7.00;;
28304;SDS011;15569;42.652;23.040;2022-09-09T12:49:05;15.05;;;8.00;;
28304;SDS011;15569;42.652;23.040;2022-09-09T12:51:48;11.00;;;7.95;;
28304;SDS011;15569;42.652;23.040;2022-09-09T12:54:14;11.23;;;7.07;;
28304;SDS011;15569;42.652;23.040;2022-09-09T12:56:44;11.43;;;6.15;;
28304;SDS011;15569;42.652;23.040;2022-09-09T12:59:21;13.48;;;9.27;;
28304;SDS011;15569;42.652;23.040;2022-09-09T13:01:57;9.85;;;6.35;;
28304;SDS011;15569;42.652;23.040;2022-09-09T13:04:23;12.13;;;6.63;;
28304;SDS011;15569;42.652;23.040;2022-09-09T13:06:49;11.30;;;7.65;;
28304;SDS011;15569;42.652;23.040;2022-09-09T13:09:14;16.45;;;7.30;;
28304;SDS011;15569;42.652;23.040;2022-09-09T13:11:43;11.43;;;7.85;;
28304;SDS011;15569;42.652;23.040;2022-09-09T13:14:15;16.73;;;7.53;;
28304;SDS011;15569;42.652;23.040;2022-09-09T13:16:57;12.70;;;6.53;;
28304;SDS011;15569;42.652;23.040;2022-09-09T13:19:24;10.18;;;6.88;;
28304;SDS011;15569;42.652;23.040;2022-09-09T13:21:54;23.05;;;13.02;;
28304;SDS011;15569;42.652;23.040;2022-09-09T13:24:28;15.65;;;8.05;;
28304;SDS011;15569;42.652;23.040;2022-09-09T13:29:29;16.40;;;6.88;;
28304;SDS011;15569;42.652;23.040;2022-09-09T13:32:06;12.18;;;;;
28304;SDS011;15569;42.652;23.040;2022-09-09T13:34:49;20.48;;;7.10;;
28304;SDS011;15569;42.652;23.040;2022-09-09T13:37:24;15.07;;;6.75;;
28304;SDS011;15569;42.652;23.040;2022-09-09T13:39:58;10.60;;;6.00;;
28304;SDS011;15569;42.652;23.040;2022-09-09T13:42:25;11.90;;;6.25;;
28304;SDS011;15569;42.652;23.040;2022-09-09T13:44:53;7.70;;;6.15;;
28304;SDS011;15569;42.652;23.040;2022-09-09T13:47:41;17.38;;;7.00;;
28304;SDS011;15569;42.652;23.040;2022-09-09T13:52:48;8.88;;;6.50;;
28304;SDS011;15569;42.652;23.040;2022-09-09T13:55:16;5.90;;;5.15;;
28304;SDS011;15569;42.652;23.040;2022-09-09T14:00:17;9.75;;;5.60;;
28304;SDS011;15569;42.652;23.040;2022-09-09T14:02:43;12.75;;;5.28;;
28304;SDS011;15569;42.652;23.040;2022-09-09T14:05:09;8.65;;;5.05;;
28304;SDS011;15569;42.652;23.040;2022-09-09T14:07:36;8.50;;;5.40;;
28304;SDS011;15569;42.652;23.040;2022-09-09T14:10:03;8.80;;;5.47;;
28304;SDS011;15569;42.652;23.040;2022-09-09T14:12:29;14.27;;;5.22;;
28304;SDS011;15569;42.652;23.040;2022-09-09T14:14:55;9.13;;;5.80;;
28304;SDS011;15569;42.652;23.040;2022-09-09T14:17:20;10.93;;;5.35;;
28304;SDS011;15569;42.652;23.040;2022-09-09T14:19:47;10.77;;;5.70;;
28304;SDS011;15569;42.652;23.040;2022-09-09T14:22:12;17.63;;;7.10;;
28304;SDS011;15569;42.652;23.040;2022-09-09T14:24:38;13.32;;;5.75;;
28304;SDS011;15569;42.652;23.040;2022-09-09T14:27:03;10.13;;;5.00;;
28304;SDS011;15569;42.652;23.040;2022-09-09T14:29:28;9.23;;;5.18;;
28304;SDS011;15569;42.652;23.040;2022-09-09T14:31:54;12.95;;;5.22;;
28304;SDS011;15569;42.652;23.040;2022-09-09T14:34:19;5.63;;;4.75;;
28304;SDS011;15569;42.652;23.040;2022-09-09T14:36:45;10.32;;;5.40;;
28304;SDS011;15569;42.652;23.040;2022-09-09T14:39:10;8.48;;;5.80;;
28304;SDS011;15569;42.652;23.040;2022-09-09T14:41:36;10.32;;;5.63;;
28304;SDS011;15569;42.652;23.040;2022-09-09T14:44:01;10.07;;;5.30;;
28304;SDS011;15569;42.652;23.040;2022-09-09T14:46:27;11.55;;;5.47;;
28304;SDS011;15569;42.652;23.040;2022-09-09T14:48:52;13.05;;;5.38;;
28304;SDS011;15569;42.652;23.040;2022-09-09T14:51:19;7.05;;;5.93;;
28304;SDS011;15569;42.652;23.040;2022-09-09T14:53:47;10.25;;;6.40;;
28304;SDS011;15569;42.652;23.040;2022-09-09T14:56:17;11.38;;;6.60;;
28304;SDS011;15569;42.652;23.040;2022-09-09T14:58:44;10.85;;;5.90;;
28304;SDS011;15569;42.652;23.040;2022-09-09T15:01:19;11.23;;;6.65;;
28304;SDS011;15569;42.652;23.040;2022-09-09T15:03:49;12.32;;;6.38;;
28304;SDS011;15569;42.652;23.040;2022-09-09T15:06:16;9.18;;;5.15;;
28304;SDS011;15569;42.652;23.040;2022-09-09T15:08:43;10.82;;;6.28;;
28304;SDS011;15569;42.652;23.040;2022-09-09T15:11:10;7.95;;;5.88;;
28304;SDS011;15569;42.652;23.040;2022-09-09T15:13:36;12.70;;;6.53;;
28304;SDS011;15569;42.652;23.040;2022-09-09T15:16:07;10.60;;;5.60;;
28304;SDS011;15569;42.652;23.040;2022-09-09T15:18:34;10.93;;;6.35;;
28304;SDS011;15569;42.652;23.040;2022-09-09T15:21:01;9.88;;;6.95;;
28304;SDS011;15569;42.652;23.040;2022-09-09T15:23:33;20.67;;;6.18;;
28304;SDS011;15569;42.652;23.040;2022-09-09T15:25:59;6.78;;;5.47;;
28304;SDS011;15569;42.652;23.040;2022-09-09T15:28:25;11.60;;;5.90;;
28304;SDS011;15569;42.652;23.040;2022-09-09T15:30:51;10.68;;;5.68;;
28304;SDS011;15569;42.652;23.040;2022-09-09T15:33:18;9.32;;;5.03;;
28304;SDS011;15569;42.652;23.040;2022-09-09T15:35:44;8.43;;;5.20;;
28304;SDS011;15569;42.652;23.040;2022-09-09T15:38:10;9.30;;;5.72;;
28304;SDS011;15569;42.652;23.040;2022-09-09T15:40:38;7.60;;;6.03;;
28304;SDS011;15569;42.652;23.040;2022-09-09T15:43:04;17.65;;;7.50;;
28304;SDS011;15569;42.652;23.040;2022-09-09T15:45:30;13.82;;;6.47;;
28304;SDS011;15569;42.652;23.040;2022-09-09T15:47:57;8.73;;;5.88;;
28304;SDS011;15569;42.652;23.040;2022-09-09T15:50:22;9.90;;;6.13;;
28304;SDS011;15569;42.652;23.040;2022-09-09T15:52:48;8.80;;;5.28;;
28304;SDS011;15569;42.652;23.040;2022-09-09T15:55:13;8.70;;;5.30;;
28304;SDS011;15569;42.652;23.040;2022-09-09T15:57:39;11.25;;;5.32;;
28304;SDS011;15569;42.652;23.040;2022-09-09T16:00:05;15.40;;;7.07;;
28304;SDS011;15569;42.652;23.040;2022-09-09T16:02:31;10.18;;;5.40;;
28304;SDS011;15569;42.652;23.040;2022-09-09T16:04:58;12.45;;;4.82;;
28304;SDS011;15569;42.652;23.040;2022-09-09T16:07:23;12.50;;;5.85;;
28304;SDS011;15569;42.652;23.040;2022-09-09T16:09:48;7.50;;;5.13;;
28304;SDS011;15569;42.652;23.040;2022-09-09T16:12:16;18.50;;;6.72;;
28304;SDS011;15569;42.652;23.040;2022-09-09T16:14:42;15.52;;;7.07;;
28304;SDS011;15569;42.652;23.040;2022-09-09T16:17:07;10.07;;;6.22;;
28304;SDS011;15569;42.652;23.040;2022-09-09T16:19:33;12.82;;;5.88;;
28304;SDS011;15569;42.652;23.040;2022-09-09T16:21:59;12.38;;;6.63;;
28304;SDS011;15569;42.652;23.040;2022-09-09T16:24:25;19.20;;;9.40;;
28304;SDS011;15569;42.652;23.040;2022-09-09T16:26:51;16.98;;;9.48;;
28304;SDS011;15569;42.652;23.040;2022-09-09T16:29:18;20.90;;;8.43;;
28304;SDS011;15569;42.652;23.040;2022-09-09T16:31:44;16.05;;;6.40;;
28304;SDS011;15569;42.652;23.040;2022-09-09T16:34:11;9.98;;;6.28;;
28304;SDS011;15569;42.652;23.040;2022-09-09T16:36:38;10.85;;;6.20;;
28304;SDS011;15569;42.652;23.040;2022-09-09T16:39:06;10.80;;;7.10;;
28304;SDS011;15569;42.652;23.040;2022-09-09T16:41:36;14.02;;;7.13;;
28304;SDS011;15569;42.652;23.040;2022-09-09T16:44:04;11.68;;;6.38;;
28304;SDS011;15569;42.652;23.040;2022-09-09T16:46:32;13.90;;;6.68;;
28304;SDS011;15569;42.652;23.040;2022-09-09T16:48:59;11.77;;;6.63;;
28304;SDS011;15569;42.652;23.040;2022-09-09T16:51:59;9.25;;;6.88;;
28304;SDS011;15569;42.652;23.040;2022-09-09T16:54:20;16.33;;;9.45;;
28304;SDS011;15569;42.652;23.040;2022-09-09T16:56:47;27.30;;;13.55;;
28304;SDS011;15569;42.652;23.040;2022-09-09T16:59:14;45.88;;;25.05;;
28304;SDS011;15569;42.652;23.040;2022-09-09T17:01:41;51.97;;;29.85;;
28304;SDS011;15569;42.652;23.040;2022-09-09T17:04:09;46.22;;;26.98;;
28304;SDS011;15569;42.652;23.040;2022-09-09T17:06:36;48.83;;;27.45;;
28304;SDS011;15569;42.652;23.040;2022-09-09T17:09:07;45.22;;;29.40;;
28304;SDS011;15569;42.652;23.040;2022-09-09T17:11:34;37.90;;;23.35;;
28304;SDS011;15569;42.652;23.040;2022-09-09T17:14:00;36.90;;;20.38;;
28304;SDS011;15569;42.652;23.040;2022-09-09T17:16:27;33.20;;;18.02;;
28304;SDS011;15569;42.652;23.040;2022-09-09T17:18:55;26.83;;;17.30;;
28304;SDS011;15569;42.652;23.040;2022-09-09T17:21:22;29.65;;;18.00;;